Time;durP1;ratioP1;P1;durP2;ratioP2;P2;SDS_P1;SDS_P2;PMS_P1;PMS_P2;Temp;Humidity;BMP_temperature;BMP_pressure;BME280_temperature;BME280_humidity;BME280_pressure;Samples;Min_cycle;Max_cycle;Signal;HPM_P1;HPM_P2
2023/07/27 00:01:31;;;;;;;;;7.50;7.50;;;;;15.57;70.43;99368.25;5013091;28;9561;-60
2023/07/27 00:03:59;;;;;;;;;4.50;4.00;;;;;15.59;70.22;99374.28;5013974;28;8822;-59
2023/07/27 00:06:26;;;;;;;;;4.00;4.00;;;;;15.61;70.22;99369.56;5012058;28;8864;-60
2023/07/27 00:08:56;;;;;;;;;9.50;7.00;;;;;15.64;69.72;99377.28;5013484;28;8853;-60
2023/07/27 00:11:24;;;;;;;;;6.33;6.33;;;;;15.67;69.73;99368.03;5022691;28;8834;-60
2023/07/27 00:13:51;;;;;;;;;6.00;6.00;;;;;15.70;69.50;99362.34;5013072;28;8868;-61
2023/07/27 00:16:19;;;;;;;;;8.50;8.50;;;;;15.74;69.87;99364.53;5014382;28;8836;-60
2023/07/27 00:18:47;;;;;;;;;9.75;8.50;;;;;15.80;69.93;99357.66;5031266;28;8840;-61
2023/07/27 00:21:14;;;;;;;;;6.25;4.00;;;;;15.84;69.30;99359.00;5012484;28;8834;-59
2023/07/27 00:23:42;;;;;;;;;7.50;6.50;;;;;15.87;68.98;99359.50;5012635;28;8834;-60
2023/07/27 00:26:10;;;;;;;;;5.00;4.00;;;;;15.91;69.26;99346.56;5012550;28;8872;-61
2023/07/27 00:28:38;;;;;;;;;7.00;5.50;;;;;15.93;69.17;99342.69;5016907;28;8824;-60
2023/07/27 00:31:05;;;;;;;;;9.50;7.00;;;;;15.97;68.90;99341.34;5032062;28;8812;-61
2023/07/27 00:33:33;;;;;;;;;7.00;7.00;;;;;15.99;68.96;99342.00;5012446;28;9519;-60
2023/07/27 00:36:01;;;;;;;;;5.20;4.40;;;;;16.02;68.94;99335.47;5012695;28;8847;-62
2023/07/27 00:38:29;;;;;;;;;7.00;5.50;;;;;16.04;69.03;99349.53;5013654;28;8814;-60
2023/07/27 00:40:56;;;;;;;;;6.75;6.75;;;;;16.06;69.04;99336.78;5012697;28;8811;-61
2023/07/27 00:43:24;;;;;;;;;4.80;4.40;;;;;16.06;68.67;99336.78;5012190;28;8842;-61
2023/07/27 00:45:52;;;;;;;;;6.00;6.00;;;;;16.08;69.38;99324.03;5012618;28;8858;-62
2023/07/27 00:48:20;;;;;;;;;6.00;6.00;;;;;16.11;68.83;99324.53;5013617;28;8830;-60
2023/07/27 00:50:48;;;;;;;;;6.00;6.00;;;;;16.13;69.07;99309.06;5031784;28;8857;-61
2023/07/27 00:53:15;;;;;;;;;7.00;7.00;;;;;16.16;68.96;99308.72;5031979;28;8812;-60
2023/07/27 00:55:43;;;;;;;;;4.00;4.00;;;;;16.19;68.55;99300.31;5031884;28;8812;-59
2023/07/27 00:58:10;;;;;;;;;5.00;5.00;;;;;16.22;68.51;99296.47;5021254;28;8820;-59
2023/07/27 01:00:38;;;;;;;;;5.60;4.80;;;;;16.24;68.36;99297.94;5035896;28;8839;-61
2023/07/27 01:03:06;;;;;;;;;4.00;4.00;;;;;16.27;68.90;99292.22;5032529;28;8816;-59
2023/07/27 01:05:34;;;;;;;;;9.40;7.60;;;;;16.30;68.79;99287.34;5031939;28;8943;-61
2023/07/27 01:08:01;;;;;;;;;4.00;4.00;;;;;16.33;68.47;99281.63;5032790;28;8835;-60
2023/07/27 01:10:29;;;;;;;;;3.00;3.00;;;;;16.36;68.17;99280.44;5035702;28;8839;-59
2023/07/27 01:12:57;;;;;;;;;5.60;5.20;;;;;16.38;68.58;99281.13;5023261;28;8810;-59
2023/07/27 01:15:24;;;;;;;;;4.25;4.25;;;;;16.40;68.54;99279.13;5034746;28;8908;-60
2023/07/27 01:17:52;;;;;;;;;6.20;4.80;;;;;16.43;68.16;99276.91;5035072;28;8805;-61
2023/07/27 01:20:20;;;;;;;;;5.20;5.20;;;;;16.47;67.75;99272.84;5035340;28;8904;-60
2023/07/27 01:22:47;;;;;;;;;6.00;6.00;;;;;16.50;68.54;99275.19;5035433;28;8836;-60
2023/07/27 01:25:15;;;;;;;;;8.00;7.60;;;;;16.52;67.88;99275.88;5035266;28;8847;-61
2023/07/27 01:27:42;;;;;;;;;4.80;4.80;;;;;16.54;67.99;99272.97;5035312;28;8829;-61
2023/07/27 01:30:10;;;;;;;;;4.00;4.00;;;;;16.55;68.08;99275.50;5034910;28;8823;-62
2023/07/27 01:32:39;;;;;;;;;3.80;3.80;;;;;16.58;67.91;99269.78;5035371;28;8846;-59
2023/07/27 01:35:07;;;;;;;;;4.40;4.00;;;;;16.61;67.87;99265.88;5035331;28;8840;-59
2023/07/27 01:37:34;;;;;;;;;3.40;3.40;;;;;16.63;67.67;99258.50;5035494;28;8856;-60
2023/07/27 01:40:02;;;;;;;;;7.00;7.00;;;;;16.63;67.55;99255.81;5035257;28;8832;-59
2023/07/27 01:42:30;;;;;;;;;4.00;4.00;;;;;16.64;67.76;99252.94;5034978;28;8838;-60
2023/07/27 01:44:57;;;;;;;;;7.00;6.00;;;;;16.64;68.23;99247.53;5034738;28;8816;-60
2023/07/27 01:47:25;;;;;;;;;3.40;3.40;;;;;16.65;67.84;99246.53;5035033;28;8835;-59
2023/07/27 01:49:52;;;;;;;;;4.00;4.00;;;;;16.64;67.69;99247.53;5034829;28;8839;-59
2023/07/27 01:52:20;;;;;;;;;7.00;6.00;;;;;16.65;67.72;99238.47;5017220;28;8814;-60
2023/07/27 01:54:48;;;;;;;;;6.40;6.40;;;;;16.65;68.54;99238.47;5030478;28;8864;-59
2023/07/27 01:57:16;;;;;;;;;3.60;3.40;;;;;16.65;67.66;99229.56;5034171;28;8859;-60
2023/07/27 01:59:43;;;;;;;;;4.00;4.00;;;;;16.65;67.67;99234.97;5034675;28;8823;-59
2023/07/27 02:02:11;;;;;;;;;8.00;6.50;;;;;16.64;67.83;99226.03;5017415;28;8840;-58
2023/07/27 02:04:38;;;;;;;;;4.00;4.00;;;;;16.65;68.25;99221.50;5014685;28;8830;-59
2023/07/27 02:07:06;;;;;;;;;4.00;4.00;;;;;16.64;68.03;99223.34;5016211;28;8881;-59
2023/07/27 02:09:34;;;;;;;;;6.00;5.20;;;;;16.65;67.80;99219.63;5013828;28;9479;-59
2023/07/27 02:12:01;;;;;;;;;4.00;4.00;;;;;16.65;67.92;99214.25;5014702;28;9511;-60
2023/07/27 02:14:29;;;;;;;;;5.60;5.60;;;;;16.66;67.63;99218.66;5021797;28;8815;-59
2023/07/27 02:16:57;;;;;;;;;4.00;4.00;;;;;16.67;68.07;99214.94;5034447;28;8832;-60
2023/07/27 02:19:24;;;;;;;;;4.00;3.80;;;;;16.68;68.03;99211.25;5032806;28;8851;-59
2023/07/27 02:21:52;;;;;;;;;0.40;0.40;;;;;16.70;68.06;99209.19;5015564;28;8825;-60
2023/07/27 02:24:20;;;;;;;;;1.40;1.40;;;;;16.71;68.12;99207.38;5014588;28;8845;-59
2023/07/27 02:26:47;;;;;;;;;4.40;4.00;;;;;16.70;67.72;99198.44;5014631;28;9496;-59
2023/07/27 02:29:15;;;;;;;;;3.00;3.00;;;;;16.71;67.73;99205.50;5014546;28;8863;-60
2023/07/27 02:31:42;;;;;;;;;5.60;5.20;;;;;16.73;67.74;99208.88;5014448;28;8869;-59
2023/07/27 02:34:10;;;;;;;;;6.00;6.00;;;;;16.76;67.80;99196.88;5026446;28;8828;-60
2023/07/27 02:36:38;;;;;;;;;7.40;6.20;;;;;16.78;67.42;99200.25;5034358;28;8848;-59
2023/07/27 02:39:05;;;;;;;;;6.20;6.00;;;;;16.81;67.42;99202.56;5034229;28;8816;-61
2023/07/27 02:41:33;;;;;;;;;7.00;7.00;;;;;16.85;67.12;99207.41;5034027;28;8840;-60
2023/07/27 02:44:01;;;;;;;;;3.60;3.60;;;;;16.90;67.22;99205.03;5033182;28;8863;-59
2023/07/27 02:46:28;;;;;;;;;4.80;4.00;;;;;16.95;67.16;99208.00;5033921;28;8854;-59
2023/07/27 02:48:56;;;;;;;;;6.00;6.00;;;;;17.00;67.19;99204.78;5033869;28;8895;-59
2023/07/27 02:51:24;;;;;;;;;4.00;4.00;;;;;17.03;67.22;99205.28;5033124;28;8820;-59
2023/07/27 02:53:51;;;;;;;;;3.00;3.00;;;;;17.06;66.91;99204.91;5017033;28;8822;-59
2023/07/27 02:56:19;;;;;;;;;4.00;4.00;;;;;17.09;66.64;99203.69;5014141;28;8838;-59
2023/07/27 02:58:47;;;;;;;;;5.20;5.20;;;;;17.09;67.07;99198.31;5013706;28;8848;-59
2023/07/27 03:01:15;;;;;;;;;3.00;3.00;;;;;17.11;66.85;99199.81;5015990;28;8818;-60
2023/07/27 03:03:43;;;;;;;;;4.00;3.80;;;;;17.11;66.54;99194.44;5013719;28;8846;-60
2023/07/27 03:06:10;;;;;;;;;3.20;3.20;;;;;17.08;66.73;99197.47;5014572;28;8885;-60
2023/07/27 03:08:38;;;;;;;;;5.60;5.60;;;;;17.08;66.45;99207.41;5014051;28;8814;-59
2023/07/27 03:11:06;;;;;;;;;4.40;4.00;;;;;17.06;66.72;99199.50;5021536;28;8820;-60
2023/07/27 03:13:33;;;;;;;;;4.00;3.60;;;;;17.04;66.53;99200.72;5033643;28;8800;-59
2023/07/27 03:16:01;;;;;;;;;6.80;6.00;;;;;17.01;66.63;99204.59;5020451;28;8828;-60
2023/07/27 03:18:28;;;;;;;;;3.00;3.00;;;;;16.99;67.29;99205.78;5033352;28;8852;-60
2023/07/27 03:20:56;;;;;;;;;4.00;4.00;;;;;16.94;66.82;99200.94;5032895;28;8808;-61
2023/07/27 03:23:25;;;;;;;;;4.00;3.00;;;;;16.91;67.43;99204.00;5033192;28;8828;-60
2023/07/27 03:25:53;;;;;;;;;3.00;3.00;;;;;16.86;67.33;99208.25;5033440;28;8848;-60
2023/07/27 03:28:20;;;;;;;;;6.80;4.40;;;;;16.79;66.99;99202.75;5033179;28;8851;-61
2023/07/27 03:30:48;;;;;;;;;4.00;4.00;;;;;16.72;67.71;99207.16;5033220;28;8823;-62
2023/07/27 03:33:16;;;;;;;;;5.20;4.00;;;;;16.64;67.69;99201.84;5024677;28;8804;-60
2023/07/27 03:35:43;;;;;;;;;4.40;3.40;;;;;16.56;68.15;99199.22;5033238;28;8908;-60
2023/07/27 03:38:11;;;;;;;;;3.80;3.40;;;;;16.48;68.41;99204.63;5033408;28;8820;-59
2023/07/27 03:40:39;;;;;;;;;4.00;4.00;;;;;16.40;68.65;99202.00;5033475;28;8914;-61
2023/07/27 03:43:07;;;;;;;;;4.00;4.00;;;;;16.32;68.25;99199.31;5033171;28;8847;-59
2023/07/27 03:45:34;;;;;;;;;1.40;1.00;;;;;16.26;68.72;99201.91;5033081;28;9497;-60
2023/07/27 03:48:02;;;;;;;;;4.00;4.00;;;;;16.20;69.12;99197.22;5033085;28;8835;-61
2023/07/27 03:50:30;;;;;;;;;3.40;1.00;;;;;16.15;69.11;99196.06;5032859;28;8868;-59
2023/07/27 03:52:57;;;;;;;;;1.00;1.00;;;;;16.09;69.31;99194.91;5032476;28;8836;-60
2023/07/27 03:55:25;;;;;;;;;4.00;4.00;;;;;16.06;69.81;99191.72;5028482;28;8829;-61
2023/07/27 03:57:52;;;;;;;;;4.50;4.00;;;;;16.01;69.11;99188.75;5012590;28;8837;-59
2023/07/27 04:00:20;;;;;;;;;6.00;5.20;;;;;15.97;69.54;99182.03;5013052;28;8846;-61
2023/07/27 04:02:48;;;;;;;;;6.00;5.60;;;;;15.93;68.94;99183.41;5012479;28;8826;-60
2023/07/27 04:05:15;;;;;;;;;4.00;4.00;;;;;15.91;69.63;99182.75;5012743;28;8857;-60
2023/07/27 04:07:43;;;;;;;;;4.80;4.40;;;;;15.88;69.29;99172.34;5013108;28;8830;-60
2023/07/27 04:10:11;;;;;;;;;6.25;4.00;;;;;15.84;69.55;99171.03;5014730;28;8824;-59
2023/07/27 04:12:39;;;;;;;;;4.00;4.00;;;;;15.81;69.52;99174.06;5012707;28;8830;-60
2023/07/27 04:15:06;;;;;;;;;3.50;3.25;;;;;15.79;69.68;99165.34;5012725;28;8874;-60
2023/07/27 04:17:34;;;;;;;;;5.50;5.50;;;;;15.77;69.95;99160.13;5012480;28;8860;-59
2023/07/27 04:20:02;;;;;;;;;5.00;5.00;;;;;15.77;69.80;99156.63;5018998;28;8839;-59
2023/07/27 04:22:29;;;;;;;;;7.50;7.00;;;;;15.74;69.80;99154.28;5012750;28;8834;-60
2023/07/27 04:24:57;;;;;;;;;4.00;4.00;;;;;15.72;70.30;99156.31;5021511;28;8824;-59
2023/07/27 04:27:25;;;;;;;;;4.50;4.50;;;;;15.70;70.01;99150.28;5032003;28;8836;-59
2023/07/27 04:29:52;;;;;;;;;3.00;3.00;;;;;15.67;70.28;99142.56;5030464;28;8845;-59
2023/07/27 04:32:20;;;;;;;;;5.00;4.00;;;;;15.66;70.31;99151.63;5013476;28;8826;-59
2023/07/27 04:34:48;;;;;;;;;5.20;4.00;;;;;15.65;70.17;99144.59;5015521;28;8830;-59
2023/07/27 04:37:16;;;;;;;;;4.00;3.40;;;;;15.62;70.54;99145.75;5015469;28;8860;-60
2023/07/27 04:39:43;;;;;;;;;5.20;4.00;;;;;15.60;70.13;99138.88;5015524;28;8842;-59
2023/07/27 04:42:11;;;;;;;;;4.00;4.00;;;;;15.59;69.91;99140.75;5034290;28;8857;-59
2023/07/27 04:44:39;;;;;;;;;3.80;3.80;;;;;15.59;69.89;99130.03;5015730;28;8822;-60
2023/07/27 04:47:06;;;;;;;;;4.80;4.00;;;;;15.59;70.53;99132.69;5015260;28;8818;-59
2023/07/27 04:49:34;;;;;;;;;4.00;3.00;;;;;15.59;70.42;99132.69;5015500;28;8846;-59
2023/07/27 04:52:02;;;;;;;;;3.80;3.00;;;;;15.61;70.42;99130.66;5033577;28;8916;-59
2023/07/27 04:54:30;;;;;;;;;5.60;5.20;;;;;15.59;70.42;99124.66;5035375;28;8950;-59
2023/07/27 04:56:57;;;;;;;;;4.00;4.00;;;;;15.59;70.21;99105.88;5021202;28;9565;-59
2023/07/27 04:59:25;;;;;;;;;6.50;6.50;;;;;15.60;70.56;99112.06;5015882;28;8838;-59
2023/07/27 05:01:53;;;;;;;;;4.50;4.00;;;;;15.61;70.80;99111.06;5032129;28;8846;-59
2023/07/27 05:04:20;;;;;;;;;4.00;4.00;;;;;15.60;70.47;99107.53;5035432;28;9494;-60
2023/07/27 05:06:48;;;;;;;;;7.00;6.00;;;;;15.61;70.82;99103.84;5022640;28;8833;-59
2023/07/27 05:09:16;;;;;;;;;5.00;5.00;;;;;15.60;70.56;99099.47;5033539;28;8832;-60
2023/07/27 05:11:44;;;;;;;;;5.00;5.00;;;;;15.62;70.57;99096.63;5019588;28;8895;-60
2023/07/27 05:14:11;;;;;;;;;4.00;4.00;;;;;15.61;70.61;99089.59;5015610;28;8818;-60
2023/07/27 05:16:39;;;;;;;;;4.00;4.00;;;;;15.62;70.55;99089.41;5025774;28;8827;-61
2023/07/27 05:19:07;;;;;;;;;2.50;1.00;;;;;15.62;71.09;99092.09;5034732;28;8827;-60
2023/07/27 05:21:35;;;;;;;;;3.20;3.20;;;;;15.62;70.65;99099.31;5035147;28;8817;-59
2023/07/27 05:24:02;;;;;;;;;4.00;4.00;;;;;15.61;70.47;99095.78;5035213;28;9501;-61
2023/07/27 05:26:30;;;;;;;;;3.60;3.60;;;;;15.62;70.72;99096.63;5034281;28;9497;-60
2023/07/27 05:28:59;;;;;;;;;5.00;5.00;;;;;15.61;70.83;99093.09;5033840;28;8820;-60
2023/07/27 05:31:27;;;;;;;;;6.25;6.00;;;;;15.58;70.71;99080.03;5034429;28;8843;-60
2023/07/27 05:33:54;;;;;;;;;6.00;6.00;;;;;15.59;70.88;99072.81;5034430;28;9505;-60
2023/07/27 05:36:22;;;;;;;;;4.00;4.00;;;;;15.57;70.86;99072.16;5033876;28;8874;-60
2023/07/27 05:38:50;;;;;;;;;4.40;4.00;;;;;15.55;71.28;99066.94;5034054;28;8966;-60
2023/07/27 05:41:18;;;;;;;;;3.00;3.00;;;;;15.54;70.87;99061.78;5034245;28;8836;-61
2023/07/27 05:43:45;;;;;;;;;4.00;4.00;;;;;15.53;71.25;99055.56;5034073;28;8848;-61
2023/07/27 05:46:13;;;;;;;;;4.50;4.50;;;;;15.53;71.32;99043.97;5034047;28;8885;-60
2023/07/27 05:48:41;;;;;;;;;3.00;3.00;;;;;15.53;71.37;99050.19;5034244;28;8828;-62
2023/07/27 05:51:09;;;;;;;;;4.00;4.00;;;;;15.53;71.62;99038.59;5034271;28;8843;-60
2023/07/27 05:53:37;;;;;;;;;6.00;5.00;;;;;15.53;71.46;99033.25;5034174;28;9555;-60
2023/07/27 05:56:04;;;;;;;;;5.00;4.00;;;;;15.54;71.75;99034.94;5034080;28;8828;-60
2023/07/27 05:58:32;;;;;;;;;3.00;3.00;;;;;15.53;71.37;99031.41;5034035;28;8847;-60
2023/07/27 06:01:00;;;;;;;;;3.50;3.50;;;;;15.49;71.90;99013.97;5034166;28;8828;-61
2023/07/27 06:03:28;;;;;;;;;6.00;4.00;;;;;15.43;71.96;99003.97;5028280;28;8930;-61
2023/07/27 06:05:56;;;;;;;;;4.00;3.00;;;;;15.38;72.06;98997.44;5013393;28;8850;-61
2023/07/27 06:08:23;;;;;;;;;3.00;3.00;;;;;15.36;72.78;98991.41;5015455;28;8966;-59
2023/07/27 06:10:51;;;;;;;;;6.00;3.50;;;;;15.28;72.75;98980.69;5014892;28;8822;-60
2023/07/27 06:13:19;;;;;;;;;3.75;3.75;;;;;15.25;73.75;98978.38;5014878;28;8876;-59
2023/07/27 06:15:47;;;;;;;;;5.50;3.75;;;;;15.22;73.36;98967.97;5014668;28;8803;-60
2023/07/27 06:18:14;;;;;;;;;4.00;3.25;;;;;15.20;73.14;98953.91;5013524;28;8903;-59
2023/07/27 06:20:43;;;;;;;;;5.00;4.00;;;;;15.19;73.99;98952.25;5017699;28;8807;-60
2023/07/27 06:23:10;;;;;;;;;3.00;3.00;;;;;15.20;73.90;98944.03;5024066;28;8830;-60
2023/07/27 06:25:38;;;;;;;;;3.00;3.00;;;;;15.20;73.68;98941.34;5033221;28;8828;-60
2023/07/27 06:28:06;;;;;;;;;3.00;3.00;;;;;15.22;73.48;98941.16;5033129;28;8840;-60
2023/07/27 06:30:33;;;;;;;;;4.00;4.00;;;;;15.21;73.67;98939.47;5025349;28;8816;-60
2023/07/27 06:33:01;;;;;;;;;4.00;4.00;;;;;15.21;74.23;98934.13;5033086;28;8846;-59
2023/07/27 06:35:29;;;;;;;;;4.00;4.00;;;;;15.19;74.05;98923.59;5032695;28;8823;-62
2023/07/27 06:37:56;;;;;;;;;4.00;3.00;;;;;15.21;73.85;98918.88;5031237;28;8832;-60
2023/07/27 06:40:24;;;;;;;;;3.50;3.50;;;;;15.23;74.53;98926.72;5028609;28;8854;-59
2023/07/27 06:42:52;;;;;;;;;3.25;2.50;;;;;15.25;74.67;98924.72;5012963;28;9785;-60
2023/07/27 06:45:20;;;;;;;;;3.50;3.00;;;;;15.28;74.04;98905.56;5012816;28;9527;-60
2023/07/27 06:47:48;;;;;;;;;3.50;3.00;;;;;15.31;74.66;98911.47;5027184;28;8834;-59
2023/07/27 06:50:17;;;;;;;;;3.00;3.00;;;;;15.32;74.70;98915.00;5012748;28;8822;-59
2023/07/27 06:52:44;;;;;;;;;3.75;3.00;;;;;15.34;74.36;98912.97;5019038;28;8840;-60
2023/07/27 06:55:13;;;;;;;;;4.50;4.00;;;;;15.34;74.90;98902.22;5031450;28;8858;-60
2023/07/27 06:57:41;;;;;;;;;3.00;2.50;;;;;15.38;74.33;98898.16;5016135;28;8908;-60
2023/07/27 07:00:09;;;;;;;;;3.00;3.00;;;;;15.40;74.65;98901.53;5025949;28;8828;-60
2023/07/27 07:02:37;;;;;;;;;3.00;3.00;;;;;15.41;74.80;98906.69;5030583;28;8832;-60
2023/07/27 07:05:05;;;;;;;;;3.25;3.00;;;;;15.44;75.42;98897.47;5029809;28;8893;-59
2023/07/27 07:07:32;;;;;;;;;2.00;2.00;;;;;15.45;75.60;98899.13;5011813;28;9562;-59
2023/07/27 07:10:03;;;;;;;;;1.00;1.00;;;;;15.43;75.79;98898.47;5013021;28;8806;-60
2023/07/27 07:12:31;;;;;;;;;4.00;4.00;;;;;15.40;75.85;98890.78;5021198;28;8850;-60
2023/07/27 07:14:58;;;;;;;;;1.00;0.00;;;;;15.39;76.37;98891.81;5029998;28;8840;-60
2023/07/27 07:17:27;;;;;;;;;1.00;1.00;;;;;15.39;76.58;98897.19;5021013;28;8824;-60
2023/07/27 07:19:54;;;;;;;;;3.00;3.00;;;;;15.38;76.70;98901.69;5032719;28;8843;-59
2023/07/27 07:22:22;;;;;;;;;3.00;2.00;;;;;15.39;76.58;98895.31;5032346;28;8820;-59
2023/07/27 07:24:52;;;;;;;;;1.00;1.00;;;;;15.40;76.54;98902.34;5032049;28;8842;-59
2023/07/27 07:27:21;;;;;;;;;3.00;3.00;;;;;15.41;76.25;98895.13;5032394;28;8828;-60
2023/07/27 07:29:50;;;;;;;;;3.00;3.00;;;;;15.45;77.03;98896.44;5032180;28;8836;-58
2023/07/27 07:32:17;;;;;;;;;0.20;0.20;;;;;15.50;76.52;98894.06;5032397;28;8840;-59
2023/07/27 07:34:45;;;;;;;;;1.00;1.00;;;;;15.56;76.33;98899.53;5031568;28;8840;-58
2023/07/27 07:37:13;;;;;;;;;1.00;1.00;;;;;15.60;76.59;98890.13;5031492;28;8828;-60
2023/07/27 07:39:41;;;;;;;;;0.00;0.00;;;;;15.66;76.59;98886.75;5031929;28;8970;-59
2023/07/27 07:42:09;;;;;;;;;3.00;3.00;;;;;15.70;76.81;98881.84;5032118;28;9620;-60
2023/07/27 07:44:36;;;;;;;;;2.60;1.00;;;;;15.75;76.71;98884.81;5031674;28;8847;-58
2023/07/27 07:47:04;;;;;;;;;0.40;0.40;;;;;15.79;76.90;98875.38;5031903;28;8832;-58
2023/07/27 07:49:32;;;;;;;;;0.00;0.00;;;;;15.83;76.36;98879.38;5032317;28;8838;-61
2023/07/27 07:52:00;;;;;;;;;1.00;1.00;;;;;15.87;76.59;98869.94;5032067;28;8832;-60
2023/07/27 07:54:28;;;;;;;;;1.80;1.80;;;;;15.92;76.17;98876.44;5032347;28;8910;-58
2023/07/27 07:56:56;;;;;;;;;0.00;0.00;;;;;15.98;76.08;98872.19;5031736;28;8887;-60
2023/07/27 07:59:24;;;;;;;;;2.60;1.00;;;;;16.06;76.66;98866.72;5031855;28;8851;-60
2023/07/27 08:01:52;;;;;;;;;1.00;1.00;;;;;16.11;75.90;98864.34;5031860;28;8828;-60
2023/07/27 08:04:20;;;;;;;;;0.00;0.00;;;;;16.13;76.06;98867.66;5012369;28;8814;-61
2023/07/27 08:06:48;;;;;;;;;0.60;0.00;;;;;16.17;75.76;98855.56;5017453;28;9864;-60
2023/07/27 08:09:16;;;;;;;;;0.60;0.60;;;;;16.22;76.15;98855.84;5016219;28;8854;-59
2023/07/27 08:11:44;;;;;;;;;0.80;0.20;;;;;16.23;76.57;98854.81;5031145;28;8844;-59
2023/07/27 08:14:11;;;;;;;;;0.00;0.00;;;;;16.27;76.62;98854.25;5034018;28;8835;-61
2023/07/27 08:16:39;;;;;;;;;1.00;1.00;;;;;16.31;76.61;98853.72;5032863;28;8809;-59
2023/07/27 08:19:07;;;;;;;;;0.20;0.20;;;;;16.39;76.52;98845.59;5024450;28;8824;-59
2023/07/27 08:21:35;;;;;;;;;1.40;1.00;;;;;16.43;75.80;98854.97;5034512;28;8935;-61
2023/07/27 08:24:05;;;;;;;;;0.00;0.00;;;;;16.48;75.68;98839.09;5034316;28;8824;-60
2023/07/27 08:26:33;;;;;;;;;0.80;0.00;;;;;16.51;75.68;98841.44;5034266;28;8854;-58
2023/07/27 08:29:01;;;;;;;;;0.00;0.00;;;;;16.54;75.72;98838.34;5027909;28;8828;-58
2023/07/27 08:31:31;;;;;;;;;1.00;1.00;;;;;16.55;75.83;98840.03;5034836;28;9502;-60
2023/07/27 08:33:59;;;;;;;;;0.60;0.20;;;;;16.53;76.12;98834.00;5034664;28;8839;-61
2023/07/27 08:36:27;;;;;;;;;0.00;0.00;;;;;16.53;76.70;98836.69;5032984;28;8798;-58
2023/07/27 08:38:55;;;;;;;;;0.00;0.00;;;;;16.54;76.90;98832.97;5027773;28;8830;-59
2023/07/27 08:41:23;;;;;;;;;0.00;0.00;;;;;16.54;76.60;98832.97;5015252;28;8830;-60
2023/07/27 08:43:52;;;;;;;;;0.00;0.00;;;;;16.57;77.28;98837.16;5028926;28;8843;-59
2023/07/27 08:46:20;;;;;;;;;0.00;0.00;;;;;16.62;77.32;98835.56;5034909;28;8851;-58
2023/07/27 08:48:48;;;;;;;;;0.00;0.00;;;;;16.65;76.95;98837.06;5027501;28;8836;-59
2023/07/27 08:51:16;;;;;;;;;0.60;0.60;;;;;16.68;76.94;98818.69;5013895;28;8830;-58
2023/07/27 08:53:44;;;;;;;;;0.00;0.00;;;;;16.74;76.98;98809.03;5025192;28;9730;-58
2023/07/27 08:56:12;;;;;;;;;0.00;0.00;;;;;16.73;77.31;98815.44;5033819;28;9544;-58
2023/07/27 08:58:40;;;;;;;;;0.00;0.00;;;;;16.77;77.04;98817.56;5027920;28;8893;-58
2023/07/27 09:01:08;;;;;;;;;0.00;0.00;;;;;16.81;76.73;98821.56;5013052;28;8858;-59
2023/07/27 09:03:36;;;;;;;;;0.00;0.00;;;;;16.85;77.10;98820.13;5015640;28;8841;-59
2023/07/27 09:06:04;;;;;;;;;0.00;0.00;;;;;16.86;77.26;98820.97;5026052;28;8828;-58
2023/07/27 09:08:32;;;;;;;;;0.00;0.00;;;;;16.92;77.35;98812.97;5029611;28;8830;-60
2023/07/27 09:11:00;;;;;;;;;0.00;0.00;;;;;16.96;77.29;98829.56;5015102;28;8845;-59
2023/07/27 09:13:28;;;;;;;;;0.00;0.00;;;;;16.98;77.68;98824.81;5027506;28;8837;-59
2023/07/27 09:15:56;;;;;;;;;0.00;0.00;;;;;17.00;77.03;98825.50;5034354;28;8836;-58
2023/07/27 09:18:24;;;;;;;;;1.00;1.00;;;;;17.02;77.64;98821.56;5032491;28;8844;-60
2023/07/27 09:20:52;;;;;;;;;0.00;0.00;;;;;17.05;77.56;98820.34;5022999;28;8823;-58
2023/07/27 09:23:19;;;;;;;;;0.00;0.00;;;;;17.08;77.22;98831.56;5034754;28;8843;-61
2023/07/27 09:25:47;;;;;;;;;0.00;0.00;;;;;17.05;77.54;98831.13;5034246;28;8916;-59
2023/07/27 09:28:15;;;;;;;;;0.60;0.00;;;;;17.06;77.69;98822.03;5034388;28;8828;-59
2023/07/27 09:30:43;;;;;;;;;0.00;0.00;;;;;17.08;77.81;98818.13;5034339;28;8859;-60
2023/07/27 09:33:11;;;;;;;;;0.00;0.00;;;;;17.09;77.96;98822.47;5033184;28;8836;-58
2023/07/27 09:35:39;;;;;;;;;0.00;0.00;;;;;17.06;78.40;98816.63;5033760;28;8891;-58
2023/07/27 09:38:07;;;;;;;;;0.00;0.00;;;;;17.05;78.62;98823.03;5033820;28;8862;-61
2023/07/27 09:40:36;;;;;;;;;0.60;0.60;;;;;17.09;78.56;98822.47;5034371;28;8960;-60
2023/07/27 09:43:04;;;;;;;;;0.00;0.00;;;;;17.06;78.25;98822.88;5033906;28;8852;-57
2023/07/27 09:45:32;;;;;;;;;0.00;0.00;;;;;17.04;78.67;98818.69;5033752;28;8852;-60
2023/07/27 09:48:03;;;;;;;;;2.40;0.00;;;;;17.03;78.51;98811.66;5034013;28;8924;-60
2023/07/27 09:50:31;;;;;;;;;0.00;0.00;;;;;17.00;79.04;98815.56;5034094;28;8831;-59
2023/07/27 09:52:59;;;;;;;;;0.40;0.00;;;;;16.95;79.01;98811.78;5033561;28;8856;-58
2023/07/27 09:55:27;;;;;;;;;0.00;0.00;;;;;16.89;78.90;98808.00;5033415;28;8836;-59
2023/07/27 09:57:55;;;;;;;;;0.00;0.00;;;;;16.86;79.53;98810.22;5033556;28;8839;-59
2023/07/27 10:00:24;;;;;;;;;0.80;0.80;;;;;16.81;79.97;98809.94;5033334;28;9506;-58
2023/07/27 10:02:52;;;;;;;;;0.00;0.00;;;;;16.79;80.14;98809.31;5026623;28;8830;-58
2023/07/27 10:05:26;;;;;;;;;0.00;0.00;;;;;16.77;80.05;98817.56;5013796;28;8849;-59
2023/07/27 10:07:54;;;;;;;;;0.00;0.00;;;;;16.79;80.10;98812.00;5014945;28;8934;-58
2023/07/27 10:10:20;;;;;;;;;0.00;0.00;;;;;16.83;80.06;98810.59;5013004;28;9488;-60
2023/07/27 10:12:48;;;;;;;;;0.20;0.20;;;;;16.93;79.81;98803.06;5019283;28;8857;-58
2023/07/27 10:15:16;;;;;;;;;0.00;0.00;;;;;17.00;79.60;98802.09;5023955;28;9455;-57
2023/07/27 10:17:45;;;;;;;;;0.00;0.00;;;;;17.10;78.99;98804.50;5024465;28;8922;-59
2023/07/27 10:20:13;;;;;;;;;0.00;0.00;;;;;17.14;79.51;98808.44;5014665;28;8822;-59
2023/07/27 10:22:42;;;;;;;;;0.00;0.00;;;;;17.16;79.47;98792.97;5013311;28;8822;-60
2023/07/27 10:25:10;;;;;;;;;0.00;0.00;;;;;17.21;79.63;98799.44;5012252;28;8831;-59
2023/07/27 10:27:38;;;;;;;;;0.00;0.00;;;;;17.26;79.21;98799.69;5011894;28;8952;-60
2023/07/27 10:30:06;;;;;;;;;0.00;0.00;;;;;17.29;79.26;98799.31;5027007;28;8831;-60
2023/07/27 10:32:33;;;;;;;;;0.00;0.00;;;;;17.33;79.25;98805.13;5012728;28;8914;-60
2023/07/27 10:35:02;;;;;;;;;0.00;0.00;;;;;17.37;79.38;98798.34;5013243;28;8861;-58
2023/07/27 10:37:30;;;;;;;;;0.00;0.00;;;;;17.40;79.27;98795.31;5014617;28;8818;-59
2023/07/27 10:39:59;;;;;;;;;0.00;0.00;;;;;17.46;79.42;98798.03;5013008;28;8834;-58
2023/07/27 10:42:27;;;;;;;;;0.00;0.00;;;;;17.52;79.28;98799.97;5024906;28;8840;-57
2023/07/27 10:44:55;;;;;;;;;0.00;0.00;;;;;17.58;78.96;98801.88;5032836;28;8917;-57
2023/07/27 10:47:23;;;;;;;;;0.00;0.00;;;;;17.60;79.27;98789.06;5021154;28;8849;-58
2023/07/27 10:49:51;;;;;;;;;0.00;0.00;;;;;17.62;79.66;98792.38;5014184;28;8915;-61
2023/07/27 10:52:19;;;;;;;;;0.00;0.00;;;;;17.65;79.56;98785.78;5014210;28;8830;-58
2023/07/27 10:54:47;;;;;;;;;0.00;0.00;;;;;17.81;79.32;98780.09;5026931;28;8820;-60
2023/07/27 10:57:16;;;;;;;;;0.00;0.00;;;;;18.01;79.57;98784.63;5029714;28;8939;-60
2023/07/27 10:59:44;;;;;;;;;0.00;0.00;;;;;18.22;78.93;98789.91;5027355;28;9648;-59
2023/07/27 11:02:12;;;;;;;;;0.00;0.00;;;;;18.43;78.15;98789.88;5026288;28;8845;-59
2023/07/27 11:04:40;;;;;;;;;0.00;0.00;;;;;18.70;78.04;98778.19;5015929;28;8851;-58
2023/07/27 11:07:09;;;;;;;;;0.00;0.00;;;;;18.92;76.98;98777.00;5014586;28;8938;-58
2023/07/27 11:09:36;;;;;;;;;0.00;0.00;;;;;19.12;76.46;98772.47;5012333;28;9822;-58
2023/07/27 11:12:05;;;;;;;;;0.00;0.00;;;;;19.28;76.18;98776.69;5013938;28;8834;-59
2023/07/27 11:14:33;;;;;;;;;0.00;0.00;;;;;19.38;75.50;98767.16;5012337;28;9542;-58
2023/07/27 11:17:01;;;;;;;;;0.00;0.00;;;;;19.42;76.04;98773.78;5024569;28;8812;-60
2023/07/27 11:19:30;;;;;;;;;0.00;0.00;;;;;19.42;76.19;98771.09;5012871;28;8880;-58
2023/07/27 11:21:59;;;;;;;;;0.00;0.00;;;;;19.35;76.17;98766.75;5019484;28;8954;-59
2023/07/27 11:24:26;;;;;;;;;0.00;0.00;;;;;19.27;76.77;98775.03;5031786;28;8882;-57
2023/07/27 11:26:56;;;;;;;;;0.00;0.00;;;;;19.12;76.76;98772.47;5032291;28;8844;-60
2023/07/27 11:29:25;;;;;;;;;0.00;0.00;;;;;18.95;77.87;98776.59;5031933;28;8861;-59
2023/07/27 11:31:53;;;;;;;;;0.00;0.00;;;;;18.83;78.12;98770.09;5031878;28;8842;-60
2023/07/27 11:34:21;;;;;;;;;0.00;0.00;;;;;18.75;78.26;98764.88;5031533;28;8824;-60
2023/07/27 11:36:49;;;;;;;;;0.00;0.00;;;;;18.70;78.54;98764.69;5032021;28;8855;-58
2023/07/27 11:39:17;;;;;;;;;0.20;0.20;;;;;18.66;78.77;98766.09;5031782;28;8843;-58
2023/07/27 11:41:45;;;;;;;;;0.00;0.00;;;;;18.65;78.60;98767.16;5031588;28;9409;-60
2023/07/27 11:44:15;;;;;;;;;0.00;0.00;;;;;18.59;78.53;98756.34;5031574;28;8904;-59